createdAt,value
2018-05-11T00:00:13.218Z,78.74
2018-05-11T00:01:13.192Z,79.56
2018-05-11T00:02:13.169Z,80.51
2018-05-11T00:03:13.140Z,79.85
2018-05-11T00:04:13.111Z,80.61
2018-05-11T00:05:13.094Z,79.56
2018-05-11T00:06:13.064Z,79.75
2018-05-11T00:07:13.036Z,80.04
2018-05-11T00:08:13.013Z,80.13
2018-05-11T00:09:12.983Z,80.32
2018-05-11T00:10:12.964Z,80.99
2018-05-11T00:11:12.937Z,80.41
2018-05-11T00:12:12.909Z,79.85
2018-05-11T00:13:12.881Z,80.13
2018-05-11T00:14:12.862Z,80.13
2018-05-11T00:15:12.834Z,80.51
2018-05-11T00:16:12.806Z,80.61
2018-05-11T00:17:12.788Z,80.80
2018-05-11T00:18:12.753Z,80.51
2018-05-11T00:19:12.729Z,80.32
2018-05-11T00:20:12.710Z,80.61
2018-05-11T00:21:12.675Z,80.22
2018-05-11T00:22:12.658Z,81.27
2018-05-11T00:23:12.625Z,81.14
2018-05-11T00:24:12.608Z,81.56
2018-05-11T00:25:12.584Z,81.18
2018-05-11T00:26:12.548Z,81.09
2018-05-11T00:27:12.531Z,81.18
2018-05-11T00:28:12.498Z,80.95
2018-05-11T00:29:12.483Z,80.47
2018-05-11T00:30:12.450Z,81.52
2018-05-11T00:31:12.430Z,81.52
2018-05-11T00:32:12.405Z,81.71
2018-05-11T00:33:12.376Z,81.43
2018-05-11T00:34:12.349Z,80.95
2018-05-11T00:35:12.320Z,81.14
2018-05-11T00:36:12.303Z,81.62
2018-05-11T00:37:12.279Z,81.43
2018-05-11T00:38:12.249Z,81.48
2018-05-11T00:39:12.226Z,82.06
2018-05-11T00:40:12.193Z,81.96
2018-05-11T00:41:12.167Z,81.86
2018-05-11T00:42:12.150Z,81.86
2018-05-11T00:43:12.116Z,81.96
2018-05-11T00:44:12.101Z,81.58
2018-05-11T00:45:12.069Z,81.77
2018-05-11T00:46:12.042Z,81.67
2018-05-11T00:47:12.021Z,81.86
2018-05-11T00:48:11.992Z,82.24
2018-05-11T00:49:11.966Z,82.34
2018-05-11T00:50:11.943Z,82.43
2018-05-11T00:51:11.924Z,82.06
2018-05-11T00:52:11.902Z,81.86
2018-05-11T00:53:11.870Z,82.63
2018-05-11T00:54:11.842Z,82.87
2018-05-11T00:55:11.812Z,82.49
2018-05-11T00:56:11.793Z,82.49
2018-05-11T00:57:11.763Z,82.68
2018-05-11T00:58:11.738Z,82.40
2018-05-11T00:59:11.718Z,82.06
2018-05-11T01:00:11.683Z,82.82
2018-05-11T01:01:11.667Z,82.24
2018-05-11T01:02:11.633Z,82.15
2018-05-11T01:03:11.608Z,82.63
2018-05-11T01:04:11.587Z,82.24
2018-05-11T01:05:11.554Z,82.15
2018-05-11T01:06:11.536Z,82.15
2018-05-11T01:07:11.512Z,82.15
2018-05-11T01:08:11.481Z,82.53
2018-05-11T01:09:11.463Z,82.15
2018-05-11T01:10:11.429Z,82.34
2018-05-11T01:11:11.406Z,82.72
2018-05-11T01:12:11.380Z,82.34
2018-05-11T01:13:11.350Z,82.24
2018-05-11T01:14:11.333Z,82.15
2018-05-11T01:15:11.303Z,82.53
2018-05-11T01:16:11.280Z,82.24
2018-05-11T01:17:11.252Z,82.43
2018-05-11T01:18:11.223Z,82.15
2018-05-11T01:19:11.198Z,82.63
2018-05-11T01:20:11.185Z,82.15
2018-05-11T01:21:11.191Z,82.20
2018-05-11T01:22:11.123Z,82.40
2018-05-11T01:23:11.105Z,82.40
2018-05-11T01:24:11.074Z,82.11
2018-05-11T01:25:11.047Z,82.49
2018-05-11T01:26:11.023Z,83.06
2018-05-11T01:27:11.001Z,82.78
2018-05-11T01:28:10.973Z,82.68
2018-05-11T01:29:10.947Z,82.78
2018-05-11T01:30:10.923Z,82.68
2018-05-11T01:31:10.887Z,82.59
2018-05-11T01:32:10.874Z,82.49
2018-05-11T01:33:10.842Z,82.87
2018-05-11T01:34:10.812Z,82.78
2018-05-11T01:35:10.786Z,82.78
2018-05-11T01:36:10.773Z,82.59
2018-05-11T01:37:10.739Z,82.68
2018-05-11T01:38:10.715Z,82.78
2018-05-11T01:39:10.692Z,82.97
2018-05-11T01:40:10.657Z,82.68
2018-05-11T01:41:10.633Z,82.87
2018-05-11T01:42:10.615Z,83.06
2018-05-11T01:43:10.585Z,82.49
2018-05-11T01:44:10.557Z,82.68
2018-05-11T01:45:10.584Z,82.78
2018-05-11T01:46:10.512Z,82.97
2018-05-11T01:47:10.497Z,82.49
2018-05-11T01:48:10.459Z,83.16
2018-05-11T01:49:10.436Z,82.49
2018-05-11T01:50:10.404Z,82.53
2018-05-11T01:51:10.383Z,83.11
2018-05-11T01:52:10.350Z,82.72
2018-05-11T01:53:10.324Z,82.63
2018-05-11T01:54:10.310Z,82.72
2018-05-11T01:55:10.274Z,82.72
2018-05-11T01:56:10.257Z,82.82
2018-05-11T01:57:10.231Z,82.68
2018-05-11T01:58:10.208Z,82.11
2018-05-11T01:59:10.174Z,82.49
2018-05-11T02:00:10.154Z,82.53
2018-05-11T02:01:10.122Z,83.11
2018-05-11T02:02:10.104Z,82.72
2018-05-11T02:03:10.066Z,82.63
2018-05-11T02:04:10.044Z,83.06
2018-05-11T02:05:10.022Z,82.53
2018-05-11T02:06:10.005Z,82.34
2018-05-11T02:07:09.965Z,82.82
2018-05-11T02:08:09.950Z,82.53
2018-05-11T02:09:09.923Z,82.53
2018-05-11T02:10:09.891Z,82.72
2018-05-11T02:11:09.876Z,83.01
2018-05-11T02:12:09.838Z,82.49
2018-05-11T02:13:09.817Z,82.59
2018-05-11T02:14:09.795Z,82.59
2018-05-11T02:15:09.764Z,82.78
2018-05-11T02:16:09.743Z,82.68
2018-05-11T02:17:09.715Z,83.06
2018-05-11T02:18:09.689Z,82.49
2018-05-11T02:19:09.665Z,83.06
2018-05-11T02:20:09.634Z,82.97
2018-05-11T02:21:09.610Z,82.68
2018-05-11T02:22:09.590Z,82.49
2018-05-11T02:23:09.565Z,82.87
2018-05-11T02:24:09.538Z,82.68
2018-05-11T02:25:09.511Z,82.97
2018-05-11T02:26:09.497Z,82.68
2018-05-11T02:27:09.457Z,83.16
2018-05-11T02:28:09.430Z,82.87
2018-05-11T02:29:09.405Z,83.16
2018-05-11T02:30:09.380Z,82.97
2018-05-11T02:31:09.358Z,82.49
2018-05-11T02:32:09.325Z,82.97
2018-05-11T02:33:09.307Z,82.87
2018-05-11T02:34:09.281Z,82.83
2018-05-11T02:35:09.252Z,82.83
2018-05-11T02:36:09.224Z,83.02
2018-05-11T02:37:09.202Z,83.02
2018-05-11T02:38:09.173Z,82.83
2018-05-11T02:39:09.145Z,82.83
2018-05-11T02:40:09.129Z,83.21
2018-05-11T02:41:09.098Z,83.21
2018-05-11T02:42:09.074Z,83.40
2018-05-11T02:43:09.051Z,82.83
2018-05-11T02:44:09.016Z,83.40
2018-05-11T02:45:08.998Z,83.31
2018-05-11T02:46:08.968Z,82.73
2018-05-11T02:47:08.951Z,83.50
2018-05-11T02:48:08.923Z,83.50
2018-05-11T02:49:08.890Z,82.92
2018-05-11T02:50:08.861Z,83.50
2018-05-11T02:51:08.839Z,83.21
2018-05-11T02:52:08.818Z,83.31
2018-05-11T02:53:08.796Z,82.73
2018-05-11T02:54:08.758Z,83.40
2018-05-11T02:55:08.745Z,83.50
2018-05-11T02:56:08.710Z,83.02
2018-05-11T02:57:08.684Z,83.50
2018-05-11T02:58:08.663Z,82.83
2018-05-11T02:59:08.629Z,83.50
2018-05-11T03:00:08.615Z,83.12
2018-05-11T03:01:08.592Z,82.83
2018-05-11T03:02:08.558Z,83.21
2018-05-11T03:03:08.536Z,83.69
2018-05-11T03:04:08.510Z,83.31
2018-05-11T03:05:08.526Z,83.02
2018-05-11T03:06:08.458Z,83.02
2018-05-11T03:07:08.480Z,83.50
2018-05-11T03:08:08.405Z,83.50
2018-05-11T03:09:08.377Z,83.02
2018-05-11T03:10:08.357Z,83.21
2018-05-11T03:11:08.326Z,83.25
2018-05-11T03:12:08.314Z,82.87
2018-05-11T03:13:08.279Z,83.02
2018-05-11T03:14:08.249Z,82.87
2018-05-11T03:15:08.231Z,83.06
2018-05-11T03:16:08.193Z,82.92
2018-05-11T03:17:08.172Z,82.83
2018-05-11T03:18:08.148Z,83.12
2018-05-11T03:19:08.121Z,82.83
2018-05-11T03:20:08.093Z,82.45
2018-05-11T03:21:08.075Z,82.83
2018-05-11T03:22:08.045Z,83.02
2018-05-11T03:23:08.018Z,82.83
2018-05-11T03:24:07.987Z,82.83
2018-05-11T03:25:07.968Z,83.02
2018-05-11T03:26:07.946Z,83.02
2018-05-11T03:27:07.911Z,83.02
2018-05-11T03:28:07.890Z,82.83
2018-05-11T03:29:07.866Z,83.44
2018-05-11T03:30:07.834Z,83.31
2018-05-11T03:31:07.811Z,83.50
2018-05-11T03:32:07.789Z,83.31
2018-05-11T03:33:07.765Z,83.21
2018-05-11T03:34:07.729Z,83.21
2018-05-11T03:35:07.707Z,83.50
2018-05-11T03:36:07.685Z,83.02
2018-05-11T03:37:07.654Z,83.31
2018-05-11T03:38:07.635Z,82.92
2018-05-11T03:39:07.606Z,83.02
2018-05-11T03:40:07.577Z,83.12
2018-05-11T03:41:07.554Z,83.40
2018-05-11T03:42:07.527Z,83.21
2018-05-11T03:43:07.497Z,83.21
2018-05-11T03:44:07.478Z,83.40
2018-05-11T03:45:07.448Z,83.02
2018-05-11T03:46:07.428Z,83.12
2018-05-11T03:47:07.403Z,83.07
2018-05-11T03:48:07.370Z,83.07
2018-05-11T03:49:07.366Z,83.40
2018-05-11T03:50:07.321Z,82.83
2018-05-11T03:51:07.291Z,83.02
2018-05-11T03:52:07.274Z,82.92
2018-05-11T03:53:07.245Z,83.12
2018-05-11T03:54:07.218Z,83.12
2018-05-11T03:55:07.195Z,83.21
2018-05-11T03:56:07.162Z,83.02
2018-05-11T03:57:07.147Z,82.92
2018-05-11T03:58:07.110Z,83.21
2018-05-11T03:59:07.086Z,83.21
2018-05-11T04:00:07.139Z,83.21
2018-05-11T04:01:07.034Z,83.40
2018-05-11T04:02:07.019Z,82.73
2018-05-11T04:03:06.986Z,83.40
2018-05-11T04:04:06.959Z,83.12
2018-05-11T04:05:06.940Z,83.44
2018-05-11T04:06:06.905Z,83.06
2018-05-11T04:07:06.880Z,83.44
2018-05-11T04:08:06.860Z,83.06
2018-05-11T04:09:06.830Z,83.25
2018-05-11T04:10:06.807Z,82.97
2018-05-11T04:11:06.774Z,83.54
2018-05-11T04:12:06.751Z,83.31
2018-05-11T04:13:06.816Z,83.50
2018-05-11T04:14:06.705Z,83.21
2018-05-11T04:15:06.671Z,83.06
2018-05-11T04:16:06.663Z,83.40
2018-05-11T04:17:06.627Z,82.78
2018-05-11T04:18:06.592Z,82.97
2018-05-11T04:19:06.575Z,83.06
2018-05-11T04:20:06.542Z,83.54
2018-05-11T04:21:06.516Z,82.97
2018-05-11T04:22:06.498Z,83.54
2018-05-11T04:23:06.473Z,83.25
2018-05-11T04:24:06.443Z,82.87
2018-05-11T04:25:06.426Z,83.16
2018-05-11T04:26:06.393Z,83.06
2018-05-11T04:27:06.370Z,83.06
2018-05-11T04:28:06.341Z,82.87
2018-05-11T04:29:06.322Z,83.06
2018-05-11T04:30:06.294Z,82.40
2018-05-11T04:31:06.266Z,82.87
2018-05-11T04:32:06.232Z,82.97
2018-05-11T04:33:06.207Z,83.06
2018-05-11T04:34:06.237Z,83.44
2018-05-11T04:35:06.205Z,82.97
2018-05-11T04:36:06.155Z,83.44
2018-05-11T04:37:06.107Z,83.11
2018-05-11T04:38:06.083Z,82.97
2018-05-11T04:39:06.054Z,82.53
2018-05-11T04:40:06.032Z,82.91
2018-05-11T04:41:06.012Z,82.91
2018-05-11T04:42:05.981Z,82.91
2018-05-11T04:43:05.954Z,83.29
2018-05-11T04:44:05.928Z,83.20
2018-05-11T04:45:05.903Z,82.34
2018-05-11T04:46:05.873Z,82.91
2018-05-11T04:47:05.848Z,83.29
2018-05-11T04:48:05.830Z,83.01
2018-05-11T04:49:05.801Z,82.91
2018-05-11T04:50:05.775Z,83.11
2018-05-11T04:51:05.753Z,83.01
2018-05-11T04:52:05.718Z,82.82
2018-05-11T04:53:05.693Z,82.63
2018-05-11T04:54:05.675Z,82.53
2018-05-11T04:55:05.647Z,83.11
2018-05-11T04:56:05.621Z,82.53
2018-05-11T04:57:05.598Z,83.29
2018-05-11T04:58:05.565Z,83.20
2018-05-11T04:59:05.539Z,83.20
2018-05-11T05:00:05.518Z,82.91
2018-05-11T05:01:05.496Z,83.11
2018-05-11T05:02:05.460Z,82.91
2018-05-11T05:03:05.440Z,82.82
2018-05-11T05:04:05.417Z,83.20
2018-05-11T05:05:05.383Z,82.63
2018-05-11T05:06:05.366Z,82.72
2018-05-11T05:07:05.338Z,82.72
2018-05-11T05:08:05.308Z,83.01
2018-05-11T05:09:05.290Z,82.53
2018-05-11T05:10:05.254Z,82.91
2018-05-11T05:11:05.233Z,82.06
2018-05-11T05:12:05.204Z,82.72
2018-05-11T05:13:05.184Z,83.11
2018-05-11T05:14:05.156Z,82.57
2018-05-11T05:15:05.129Z,82.67
2018-05-11T05:16:05.116Z,82.76
2018-05-11T05:17:05.077Z,82.86
2018-05-11T05:18:05.058Z,82.76
2018-05-11T05:19:05.044Z,82.86
2018-05-11T05:20:05.008Z,82.57
2018-05-11T05:21:04.981Z,83.05
2018-05-11T05:22:04.948Z,82.57
2018-05-11T05:23:04.930Z,83.14
2018-05-11T05:24:04.900Z,82.67
2018-05-11T05:25:04.880Z,82.38
2018-05-11T05:26:04.846Z,82.19
2018-05-11T05:27:04.818Z,81.90
2018-05-11T05:28:04.803Z,82.86
2018-05-11T05:29:04.770Z,82.71
2018-05-11T05:30:04.741Z,82.52
2018-05-11T05:31:04.726Z,82.61
2018-05-11T05:32:04.696Z,82.42
2018-05-11T05:33:04.686Z,82.32
2018-05-11T05:34:04.646Z,82.52
2018-05-11T05:35:04.622Z,82.42
2018-05-11T05:36:04.590Z,82.52
2018-05-11T05:37:04.564Z,82.32
2018-05-11T05:38:04.546Z,81.85
2018-05-11T05:39:04.515Z,82.14
2018-05-11T05:40:04.496Z,82.23
2018-05-11T05:41:04.465Z,81.95
2018-05-11T05:42:04.443Z,81.76
2018-05-11T05:43:04.416Z,81.99
2018-05-11T05:44:04.391Z,82.23
2018-05-11T05:45:04.367Z,81.47
2018-05-11T05:46:04.350Z,81.99
2018-05-11T05:47:04.315Z,82.28
2018-05-11T05:48:04.281Z,81.79
2018-05-11T05:49:04.262Z,81.99
2018-05-11T05:50:04.237Z,82.08
2018-05-11T05:51:04.206Z,81.32
2018-05-11T05:52:04.244Z,81.99
2018-05-11T05:53:04.163Z,82.28
2018-05-11T05:54:04.130Z,82.28
2018-05-11T05:55:04.109Z,81.60
2018-05-11T05:56:04.080Z,81.89
2018-05-11T05:57:04.055Z,81.89
2018-05-11T05:58:04.037Z,81.60
2018-05-11T05:59:04.005Z,81.51
2018-05-11T06:00:03.976Z,81.55
2018-05-11T06:01:03.958Z,82.60
2018-05-11T06:02:03.933Z,81.84
2018-05-11T06:03:03.901Z,81.16
2018-05-11T06:04:03.882Z,81.74
2018-05-11T06:05:03.852Z,81.65
2018-05-11T06:06:03.831Z,81.36
2018-05-11T06:07:03.800Z,81.36
2018-05-11T06:08:03.782Z,81.16
2018-05-11T06:09:03.787Z,81.07
2018-05-11T06:10:03.724Z,81.65
2018-05-11T06:11:03.708Z,80.98
2018-05-11T06:12:03.672Z,81.45
2018-05-11T06:13:03.647Z,81.26
2018-05-11T06:14:03.631Z,81.74
2018-05-11T06:15:03.598Z,81.65
2018-05-11T06:16:03.577Z,81.74
2018-05-11T06:17:03.558Z,81.74
2018-05-11T06:18:03.524Z,81.74
2018-05-11T06:19:03.504Z,81.07
2018-05-11T06:20:03.471Z,81.74
2018-05-11T06:21:03.454Z,81.55
2018-05-11T06:22:03.468Z,81.74
2018-05-11T06:23:03.396Z,82.22
2018-05-11T06:24:03.372Z,81.93
2018-05-11T06:25:03.345Z,81.36
2018-05-11T06:26:03.425Z,81.21
2018-05-11T06:27:03.297Z,81.26
2018-05-11T06:28:03.269Z,80.92
2018-05-11T06:29:03.252Z,81.40
2018-05-11T06:30:03.216Z,81.30
2018-05-11T06:31:03.215Z,81.02
2018-05-11T06:32:03.172Z,81.21
2018-05-11T06:33:03.144Z,80.54
2018-05-11T06:34:03.115Z,80.54
2018-05-11T06:35:03.089Z,80.82
2018-05-11T06:36:03.065Z,80.44
2018-05-11T06:37:03.047Z,80.87
2018-05-11T06:38:03.015Z,80.29
2018-05-11T06:39:02.993Z,80.96
2018-05-11T06:40:02.965Z,80.38
2018-05-11T06:41:02.942Z,80.38
2018-05-11T06:42:02.927Z,80.19
2018-05-11T06:43:02.892Z,80.10
2018-05-11T06:44:02.870Z,80.10
2018-05-11T06:45:02.852Z,80.19
2018-05-11T06:46:02.913Z,80.10
2018-05-11T06:47:02.805Z,79.52
2018-05-11T06:48:02.810Z,80.48
2018-05-11T06:49:02.741Z,80.77
2018-05-11T06:50:02.715Z,80.19
2018-05-11T06:51:02.689Z,80.19
2018-05-11T06:52:02.676Z,80.19
2018-05-11T06:53:02.640Z,79.62
2018-05-11T06:54:02.616Z,80.19
2018-05-11T06:55:02.591Z,79.33
2018-05-11T06:56:02.566Z,78.57
2018-05-11T06:57:02.545Z,79.14
2018-05-11T06:58:02.570Z,79.33
2018-05-11T06:59:02.491Z,79.47
2018-05-11T07:00:02.465Z,79.05
2018-05-11T07:01:02.449Z,78.99
2018-05-11T07:02:02.412Z,78.61
2018-05-11T07:03:02.397Z,78.61
2018-05-11T07:04:02.367Z,78.70
2018-05-11T07:05:02.337Z,78.61
2018-05-11T07:06:02.313Z,78.99
2018-05-11T07:07:02.288Z,78.61
2018-05-11T07:08:02.378Z,79.33
2018-05-11T07:09:02.237Z,78.70
2018-05-11T07:10:02.226Z,79.37
2018-05-11T07:11:02.190Z,79.18
2018-05-11T07:12:02.173Z,78.47
2018-05-11T07:13:02.145Z,78.76
2018-05-11T07:14:02.113Z,78.38
2018-05-11T07:15:02.123Z,78.66
2018-05-11T07:16:02.061Z,78.66
2018-05-11T07:17:02.039Z,79.05
2018-05-11T07:18:02.019Z,78.76
2018-05-11T07:19:01.987Z,78.47
2018-05-11T07:20:01.968Z,78.80
2018-05-11T07:21:01.945Z,78.89
2018-05-11T07:22:01.915Z,78.42
2018-05-11T07:23:01.891Z,78.89
2018-05-11T07:24:01.863Z,78.80
2018-05-11T07:25:01.847Z,78.99
2018-05-11T07:26:01.812Z,78.51
2018-05-11T07:27:01.791Z,78.61
2018-05-11T07:28:01.766Z,78.80
2018-05-11T07:29:01.738Z,78.03
2018-05-11T07:30:01.721Z,78.22
2018-05-11T07:31:01.693Z,78.64
2018-05-11T07:32:01.664Z,78.36
2018-05-11T07:33:01.638Z,78.27
2018-05-11T07:34:01.612Z,78.07
2018-05-11T07:35:01.667Z,77.59
2018-05-11T07:36:01.560Z,76.82
2018-05-11T07:37:01.537Z,76.15
2018-05-11T07:38:01.520Z,76.44
2018-05-11T07:39:01.492Z,76.64
2018-05-11T07:40:01.472Z,77.15
2018-05-11T07:41:01.448Z,77.73
2018-05-11T07:42:01.414Z,77.34
2018-05-11T07:43:01.425Z,76.67
2018-05-11T07:44:01.366Z,77.06
2018-05-11T07:45:01.340Z,75.23
2018-05-11T07:46:01.321Z,75.62
2018-05-11T07:47:01.293Z,76.57
2018-05-11T07:48:01.270Z,75.81
2018-05-11T07:49:01.243Z,75.71
2018-05-11T07:50:01.222Z,75.18
2018-05-11T07:51:01.189Z,75.08
2018-05-11T07:52:01.164Z,75.27
2018-05-11T07:53:01.146Z,74.51
2018-05-11T07:54:01.116Z,74.41
2018-05-11T07:55:01.094Z,73.55
2018-05-11T07:56:01.072Z,74.44
2018-05-11T07:57:01.051Z,73.49
2018-05-11T07:58:01.023Z,72.81
2018-05-11T07:59:00.994Z,71.37
2018-05-11T08:00:00.973Z,70.70
2018-05-11T08:01:00.948Z,68.30
2018-05-11T08:02:00.921Z,70.03
2018-05-11T08:03:00.901Z,69.65
2018-05-11T08:04:00.875Z,69.26
2018-05-11T08:05:00.857Z,70.51
2018-05-11T08:06:00.824Z,69.65
2018-05-11T08:07:00.805Z,69.74
2018-05-11T08:08:00.777Z,69.36
2018-05-11T08:09:00.749Z,70.76
2018-05-11T08:10:00.727Z,71.53
2018-05-11T08:11:00.709Z,72.97
2018-05-11T08:12:00.678Z,73.83
2018-05-11T08:13:00.658Z,74.37
2018-05-11T08:14:00.631Z,74.18
2018-05-11T08:15:00.607Z,74.76
2018-05-11T08:16:00.578Z,75.23
2018-05-11T08:17:00.558Z,75.04
2018-05-11T08:18:00.533Z,75.14
2018-05-11T08:19:00.507Z,75.33
2018-05-11T08:20:00.486Z,75.52
2018-05-11T08:21:00.460Z,73.80
2018-05-11T08:22:00.437Z,74.47
2018-05-11T08:23:00.409Z,73.99
2018-05-11T08:24:00.391Z,74.18
2018-05-11T08:25:00.365Z,73.70
2018-05-11T08:26:00.334Z,74.57
2018-05-11T08:27:00.424Z,73.90
2018-05-11T08:28:00.283Z,73.80
2018-05-11T08:29:00.267Z,73.99
2018-05-11T08:30:00.241Z,74.62
2018-05-11T08:31:00.210Z,74.91
2018-05-11T08:32:00.189Z,74.15
2018-05-11T08:33:00.161Z,73.38
2018-05-11T08:34:00.143Z,73.66
2018-05-11T08:35:00.115Z,73.95
2018-05-11T08:36:00.092Z,74.24
2018-05-11T08:37:00.063Z,74.43
2018-05-11T08:38:00.043Z,73.66
2018-05-11T08:39:00.020Z,72.03
2018-05-11T08:39:59.986Z,72.80
2018-05-11T08:41:00.002Z,74.33
2018-05-11T08:41:59.944Z,74.33
2018-05-11T08:42:59.915Z,72.13
2018-05-11T08:43:59.897Z,70.41
2018-05-11T08:44:59.871Z,72.80
2018-05-11T08:45:59.857Z,74.62
2018-05-11T08:46:59.817Z,75.14
2018-05-11T08:47:59.800Z,73.80
2018-05-11T08:48:59.771Z,73.80
2018-05-11T08:49:59.745Z,73.03
2018-05-11T08:50:59.763Z,70.92
2018-05-11T08:51:59.824Z,72.45
2018-05-11T08:52:59.675Z,74.18
2018-05-11T08:53:59.643Z,74.27
2018-05-11T08:54:59.627Z,72.78
2018-05-11T08:55:59.601Z,72.11
2018-05-11T08:56:59.572Z,70.19
2018-05-11T08:57:59.541Z,70.67
2018-05-11T08:58:59.535Z,71.05
2018-05-11T08:59:59.499Z,70.86
2018-05-11T09:00:59.475Z,70.09
2018-05-11T09:01:59.449Z,68.46
2018-05-11T09:02:59.450Z,69.84
2018-05-11T09:03:59.403Z,68.37
2018-05-11T09:04:59.380Z,68.85
2018-05-11T09:05:59.350Z,67.69
2018-05-11T09:06:59.328Z,68.56
2018-05-11T09:07:59.301Z,69.81
2018-05-11T09:08:59.279Z,69.42
2018-05-11T09:09:59.255Z,69.62
2018-05-11T09:10:59.228Z,68.75
2018-05-11T09:11:59.199Z,68.27
2018-05-11T09:12:59.182Z,69.17
2018-05-11T09:13:59.160Z,65.68
2018-05-11T09:14:59.134Z,65.39
2018-05-11T09:15:59.102Z,65.78
2018-05-11T09:16:59.085Z,65.59
2018-05-11T09:17:59.057Z,68.27
2018-05-11T09:18:59.036Z,68.69
2018-05-11T09:19:59.009Z,68.50
2018-05-11T09:20:58.987Z,68.50
2018-05-11T09:21:59.012Z,68.21
2018-05-11T09:22:58.935Z,67.06
2018-05-11T09:23:58.919Z,66.00
2018-05-11T09:24:58.889Z,65.43
2018-05-11T09:25:58.862Z,65.91
2018-05-11T09:26:58.836Z,66.00
2018-05-11T09:27:58.819Z,64.85
2018-05-11T09:28:58.789Z,66.39
2018-05-11T09:29:58.771Z,66.00
2018-05-11T09:30:58.745Z,64.95
2018-05-11T09:31:58.714Z,66.29
2018-05-11T09:32:58.698Z,66.00
2018-05-11T09:33:58.667Z,67.44
2018-05-11T09:34:58.644Z,62.84
2018-05-11T09:35:58.626Z,62.16
2018-05-11T09:36:58.593Z,60.44
2018-05-11T09:37:58.579Z,62.84
2018-05-11T09:38:58.548Z,62.74
2018-05-11T09:39:58.521Z,66.29
2018-05-11T09:40:58.527Z,63.99
2018-05-11T09:41:58.475Z,67.16
2018-05-11T09:42:58.486Z,66.58
2018-05-11T09:43:58.429Z,64.95
2018-05-11T09:44:58.399Z,62.84
2018-05-11T09:45:58.387Z,61.30
2018-05-11T09:46:58.353Z,60.25
2018-05-11T09:47:58.326Z,62.93
2018-05-11T09:48:58.307Z,62.84
2018-05-11T09:49:58.278Z,62.45
2018-05-11T09:50:58.249Z,63.42
2018-05-11T09:51:58.238Z,65.72
2018-05-11T09:52:58.205Z,65.62
2018-05-11T09:53:58.186Z,64.37
2018-05-11T09:54:58.236Z,62.55
2018-05-11T09:55:58.128Z,62.39
2018-05-11T09:56:58.110Z,61.33
2018-05-11T09:57:58.193Z,61.69
2018-05-11T09:58:58.065Z,60.72
2018-05-11T09:59:58.037Z,62.68
2018-05-11T10:00:58.016Z,63.03
2018-05-11T10:01:57.987Z,58.71
2018-05-11T10:02:57.964Z,59.58
2018-05-11T10:03:57.941Z,59.00
2018-05-11T10:04:57.914Z,61.40
2018-05-11T10:05:57.897Z,62.68
2018-05-11T10:06:57.865Z,63.06
2018-05-11T10:07:57.925Z,61.91
2018-05-11T10:08:57.824Z,63.45
2018-05-11T10:09:57.795Z,62.87
2018-05-11T10:10:57.771Z,63.25
2018-05-11T10:11:57.744Z,61.81
2018-05-11T10:12:57.730Z,59.61
2018-05-11T10:13:57.749Z,62.19
2018-05-11T10:14:57.671Z,62.77
2018-05-11T10:15:57.653Z,61.81
2018-05-11T10:16:57.626Z,62.29
2018-05-11T10:17:57.605Z,60.28
2018-05-11T10:18:57.579Z,60.88
2018-05-11T10:19:57.557Z,62.04
2018-05-11T10:20:57.692Z,62.42
2018-05-11T10:21:57.506Z,61.65
2018-05-11T10:22:57.480Z,62.13
2018-05-11T10:23:57.456Z,59.34
2018-05-11T10:24:57.440Z,58.10
2018-05-11T10:25:57.403Z,56.37
2018-05-11T10:26:57.386Z,54.93
2018-05-11T10:27:57.371Z,57.52
2018-05-11T10:28:57.428Z,58.67
2018-05-11T10:29:57.313Z,59.54
2018-05-11T10:30:57.286Z,59.54
2018-05-11T10:31:57.261Z,60.21
2018-05-11T10:32:57.238Z,59.54
2018-05-11T10:33:57.292Z,59.57
2018-05-11T10:34:57.334Z,58.32
2018-05-11T10:35:57.843Z,59.28
2018-05-11T10:36:57.648Z,56.78
2018-05-11T10:37:57.678Z,57.45
2018-05-11T10:38:57.098Z,54.86
2018-05-11T10:39:57.143Z,56.49
2018-05-11T10:40:57.048Z,58.32
2018-05-11T10:41:57.021Z,57.29
2018-05-11T10:42:56.995Z,57.48
2018-05-11T10:43:56.984Z,56.23
2018-05-11T10:44:56.959Z,57.97
2018-05-11T10:45:56.924Z,56.52
2018-05-11T10:46:56.910Z,57.87
2018-05-11T10:47:56.878Z,56.14
2018-05-11T10:48:56.861Z,55.85
2018-05-11T10:49:56.840Z,54.60
2018-05-11T10:50:56.814Z,55.08
2018-05-11T10:51:56.786Z,54.69
2018-05-11T10:52:56.764Z,54.34
2018-05-11T10:53:56.736Z,54.41
2018-05-11T10:54:56.711Z,53.66
2018-05-11T10:55:56.748Z,55.27
2018-05-11T10:56:56.670Z,56.16
2018-05-11T10:57:56.646Z,55.49
2018-05-11T10:58:56.626Z,54.05
2018-05-11T10:59:56.598Z,54.91
2018-05-11T11:00:56.568Z,55.01
2018-05-11T11:01:56.557Z,54.34
2018-05-11T11:02:56.525Z,54.43
2018-05-11T11:03:56.507Z,53.38
2018-05-11T11:04:56.487Z,55.40
2018-05-11T11:05:56.453Z,53.57
2018-05-11T11:06:56.428Z,52.32
2018-05-11T11:07:56.438Z,53.96
2018-05-11T11:08:56.382Z,54.14
2018-05-11T11:09:56.369Z,54.24
2018-05-11T11:10:56.344Z,52.70
2018-05-11T11:11:56.317Z,52.89
2018-05-11T11:12:56.290Z,53.38
2018-05-11T11:13:56.265Z,53.76
2018-05-11T11:14:56.294Z,53.47
2018-05-11T11:15:56.225Z,54.24
2018-05-11T11:16:56.203Z,54.63
2018-05-11T11:17:56.174Z,54.43
2018-05-11T11:18:56.152Z,54.14
2018-05-11T11:19:56.177Z,53.38
2018-05-11T11:20:56.098Z,51.84
2018-05-11T11:21:56.104Z,52.12
2018-05-11T11:22:56.055Z,51.91
2018-05-11T11:23:56.048Z,52.61
2018-05-11T11:24:56.040Z,53.45
2018-05-11T11:25:56.126Z,52.42
2018-05-11T11:26:55.962Z,53.66
2018-05-11T11:27:55.958Z,52.70
2018-05-11T11:28:56.036Z,53.19
2018-05-11T11:29:55.891Z,53.96
2018-05-11T11:30:55.883Z,53.78
2018-05-11T11:31:55.867Z,52.73
2018-05-11T11:32:55.824Z,52.25
2018-05-11T11:33:55.800Z,53.31
2018-05-11T11:34:55.778Z,54.36
2018-05-11T11:35:55.749Z,53.98
2018-05-11T11:36:55.764Z,54.17
2018-05-11T11:37:55.728Z,54.27
2018-05-11T11:38:55.704Z,52.34
2018-05-11T11:39:55.654Z,51.86
2018-05-11T11:40:55.643Z,50.61
2018-05-11T11:41:55.712Z,50.71
2018-05-11T11:42:55.590Z,50.13
2018-05-11T11:43:55.558Z,51.76
2018-05-11T11:44:55.544Z,51.29
2018-05-11T11:45:55.519Z,51.09
2018-05-11T11:46:55.497Z,51.60
2018-05-11T11:47:55.477Z,51.79
2018-05-11T11:48:55.452Z,50.73
2018-05-11T11:49:55.419Z,50.06
2018-05-11T11:50:55.404Z,50.73
2018-05-11T11:51:55.373Z,51.12
2018-05-11T11:52:55.349Z,50.93
2018-05-11T11:53:55.333Z,51.98
2018-05-11T11:54:55.302Z,50.54
2018-05-11T11:55:55.281Z,49.38
2018-05-11T11:56:55.265Z,52.69
2018-05-11T11:57:55.246Z,50.09
2018-05-11T11:58:55.217Z,52.40
2018-05-11T11:59:55.197Z,51.14
2018-05-11T12:00:55.175Z,47.10
2018-05-11T12:01:55.165Z,46.04
2018-05-11T12:02:55.118Z,47.19
2018-05-11T12:03:55.101Z,49.99
2018-05-11T12:04:55.079Z,49.24
2018-05-11T12:05:55.051Z,47.22
2018-05-11T12:06:55.029Z,49.24
2018-05-11T12:07:55.005Z,47.60
2018-05-11T12:08:55.000Z,46.35
2018-05-11T12:09:54.955Z,46.45
2018-05-11T12:10:54.935Z,45.87
2018-05-11T12:11:54.911Z,45.17
2018-05-11T12:12:54.897Z,45.97
2018-05-11T12:13:54.863Z,48.38
2018-05-11T12:14:54.847Z,50.49
2018-05-11T12:15:54.819Z,49.05
2018-05-11T12:16:54.795Z,48.57
2018-05-11T12:17:54.781Z,49.07
2018-05-11T12:18:54.752Z,49.65
2018-05-11T12:19:54.736Z,49.96
2018-05-11T12:20:54.715Z,50.84
2018-05-11T12:21:54.685Z,44.76
2018-05-11T12:22:54.662Z,45.14
2018-05-11T12:23:54.643Z,46.69
2018-05-11T12:24:54.615Z,47.45
2018-05-11T12:25:54.599Z,46.69
2018-05-11T12:26:54.574Z,46.23
2018-05-11T12:27:54.556Z,47.19
2018-05-11T12:28:54.529Z,47.29
2018-05-11T12:29:54.511Z,45.94
2018-05-11T12:30:54.485Z,46.03
2018-05-11T12:31:54.459Z,47.19
2018-05-11T12:32:54.474Z,47.38
2018-05-11T12:33:54.410Z,48.35
2018-05-11T12:34:54.406Z,48.44
2018-05-11T12:35:54.377Z,45.07
2018-05-11T12:36:54.350Z,42.94
2018-05-11T12:37:54.332Z,43.33
2018-05-11T12:38:54.306Z,43.62
2018-05-11T12:39:54.279Z,44.97
2018-05-11T12:40:54.258Z,44.01
2018-05-11T12:41:54.234Z,44.29
2018-05-11T12:42:54.213Z,40.70
2018-05-11T12:43:54.189Z,40.22
2018-05-11T12:44:54.177Z,42.83
2018-05-11T12:45:54.151Z,46.40
2018-05-11T12:46:54.125Z,46.71
2018-05-11T12:47:54.106Z,47.29
2018-05-11T12:48:54.080Z,46.61
2018-05-11T12:49:54.062Z,46.23
2018-05-11T12:50:54.051Z,44.49
2018-05-11T12:51:54.013Z,46.03